Time;durP1;ratioP1;P1;durP2;ratioP2;P2;SDS_P1;SDS_P2;PMS_P1;PMS_P2;Temp;Humidity;BMP_temperature;BMP_pressure;BME280_temperature;BME280_humidity;BME280_pressure;Samples;Min_cycle;Max_cycle;Signal;HPM_P1;HPM_P2
2022/12/07 00:01:38;;;;;;;44.03;30.23;;;;;;;1.48;100.00;101664.91;5093042;28;20028;-69
2022/12/07 00:04:06;;;;;;;41.55;29.30;;;;;;;1.41;100.00;101664.50;5102745;28;20027;-69
2022/12/07 00:06:37;;;;;;;44.80;30.95;;;;;;;1.37;100.00;101664.31;5101148;28;20020;-70
2022/12/07 00:09:04;;;;;;;43.83;30.63;;;;;;;1.29;100.00;101662.09;5106960;28;20031;-69
2022/12/07 00:11:29;;;;;;;44.28;31.17;;;;;;;1.30;100.00;101664.78;5104453;28;20032;-70
2022/12/07 00:14:00;;;;;;;46.25;32.42;;;;;;;1.25;100.00;101663.63;5107684;28;20493;-69
2022/12/07 00:16:29;;;;;;;43.65;30.42;;;;;;;1.21;100.00;101653.88;5100546;28;20035;-69
2022/12/07 00:18:55;;;;;;;47.13;31.52;;;;;;;1.17;100.00;101654.53;5100501;28;20471;-69
2022/12/07 00:21:24;;;;;;;45.10;31.10;;;;;;;1.11;100.00;101649.88;5107207;28;20077;-69
2022/12/07 00:23:51;;;;;;;46.97;33.10;;;;;;;1.11;100.00;101656.78;5103991;28;20063;-69
2022/12/07 00:26:28;;;;;;;44.97;32.13;;;;;;;1.10;100.00;101648.06;5106612;28;20058;-77
2022/12/07 00:29:02;;;;;;;52.05;34.03;;;;;;;1.11;100.00;101649.88;5099912;28;20051;-76
2022/12/07 00:31:33;;;;;;;49.40;33.92;;;;;;;1.14;100.00;101643.94;5100503;28;20035;-76
2022/12/07 00:33:58;;;;;;;50.90;35.63;;;;;;;1.24;100.00;101640.09;5106560;28;20044;-76
2022/12/07 00:36:24;;;;;;;49.00;34.10;;;;;;;1.27;100.00;101643.78;5103847;28;20043;-77
2022/12/07 00:38:50;;;;;;;49.53;35.25;;;;;;;1.29;100.00;101639.53;5106669;28;20040;-76
2022/12/07 00:41:20;;;;;;;52.45;37.03;;;;;;;1.27;100.00;101645.47;5104416;28;20031;-77
2022/12/07 00:43:47;;;;;;;52.42;35.95;;;;;;;1.24;100.00;101640.09;5106123;28;20031;-76
2022/12/07 00:46:14;;;;;;;47.28;34.10;;;;;;;1.27;100.00;101649.00;5104772;28;20456;-76
2022/12/07 00:48:40;;;;;;;48.65;35.08;;;;;;;1.26;100.00;101642.00;5105013;28;20020;-76
2022/12/07 00:51:06;;;;;;;47.63;35.38;;;;;;;1.30;100.00;101649.16;5105756;28;20501;-76
2022/12/07 00:53:34;;;;;;;50.15;35.95;;;;;;;1.33;100.00;101640.63;5103896;28;20028;-76
2022/12/07 00:56:12;;;;;;;49.05;35.50;;;;;;;1.33;100.00;101645.84;5104849;28;20027;-76
2022/12/07 00:58:38;;;;;;;50.55;36.60;;;;;;;1.32;100.00;101644.03;5104722;28;20024;-73
2022/12/07 01:01:05;;;;;;;51.17;36.92;;;;;;;1.25;100.00;101642.78;5104227;28;20034;-76
2022/12/07 01:03:31;;;;;;;51.10;36.40;;;;;;;1.14;100.00;101638.72;5105969;28;20106;-76
2022/12/07 01:05:57;;;;;;;49.97;35.45;;;;;;;1.07;100.00;101636.59;5103857;28;20502;-70
2022/12/07 01:08:23;;;;;;;49.83;35.10;;;;;;;0.98;100.00;101642.19;5106389;28;20035;-71
2022/12/07 01:10:49;;;;;;;48.47;33.97;;;;;;;0.94;100.00;101635.88;5101578;28;20021;-71
2022/12/07 01:13:16;;;;;;;48.08;34.33;;;;;;;0.90;100.00;101639.13;5106382;28;20031;-71
2022/12/07 01:15:43;;;;;;;48.50;34.35;;;;;;;0.93;100.00;101638.41;5103681;28;20039;-70
2022/12/07 01:18:08;;;;;;;52.65;35.15;;;;;;;0.93;100.00;101639.28;5104688;28;20051;-71
2022/12/07 01:20:34;;;;;;;50.88;37.05;;;;;;;0.94;100.00;101643.69;5103350;28;20099;-70
2022/12/07 01:22:59;;;;;;;48.35;35.58;;;;;;;0.99;100.00;101634.44;5103849;28;20116;-69
2022/12/07 01:25:25;;;;;;;51.53;37.28;;;;;;;1.02;100.00;101639.81;5105461;28;20523;-71
2022/12/07 01:27:50;;;;;;;51.38;36.50;;;;;;;1.10;100.00;101642.84;5102707;28;20032;-71
2022/12/07 01:30:16;;;;;;;50.38;37.15;;;;;;;1.13;100.00;101647.34;5106294;28;20470;-69
2022/12/07 01:32:41;;;;;;;51.72;37.72;;;;;;;1.15;100.00;101635.28;5101835;28;20435;-70
2022/12/07 01:35:07;;;;;;;51.08;36.67;;;;;;;1.21;100.00;101640.84;5104730;28;20044;-70
2022/12/07 01:37:36;;;;;;;51.67;37.40;;;;;;;1.24;100.00;101642.72;5104073;28;20028;-70
2022/12/07 01:40:03;;;;;;;48.92;35.08;;;;;;;1.32;100.00;101651.84;5096279;28;20051;-69
2022/12/07 01:42:29;;;;;;;49.17;35.47;;;;;;;1.37;100.00;101653.91;5104258;28;20098;-70
2022/12/07 01:45:28;;;;;;;49.72;37.25;;;;;;;1.43;100.00;101647.22;5103181;28;20546;-70
2022/12/07 01:47:56;;;;;;;47.30;35.60;;;;;;;1.53;100.00;101645.22;5100482;28;20028;-71
2022/12/07 01:50:26;;;;;;;46.88;35.90;;;;;;;1.56;100.00;101647.09;5105075;28;20502;-71
2022/12/07 01:52:55;;;;;;;48.75;37.15;;;;;;;1.54;100.00;101640.88;5101264;28;20494;-71
2022/12/07 01:55:21;;;;;;;48.28;36.00;;;;;;;1.51;100.00;101638.09;5105135;28;20364;-71
2022/12/07 01:57:51;;;;;;;48.53;36.63;;;;;;;1.46;100.00;101642.19;5101943;28;20026;-72
2022/12/07 02:00:18;;;;;;;48.10;37.17;;;;;;;1.41;100.00;101641.91;5098430;28;20470;-71
2022/12/07 02:02:48;;;;;;;49.90;37.78;;;;;;;1.37;100.00;101633.06;5098976;28;20020;-71
2022/12/07 02:05:14;;;;;;;48.33;36.42;;;;;;;1.36;100.00;101628.66;5103118;28;20451;-70
2022/12/07 02:07:40;;;;;;;49.35;36.60;;;;;;;1.32;100.00;101634.50;5105118;28;20028;-70
2022/12/07 02:10:29;;;;;;;49.13;37.00;;;;;;;1.27;100.00;101635.06;5101991;28;20028;-70
2022/12/07 02:13:00;;;;;;;47.35;35.65;;;;;;;1.19;100.00;101632.03;5101502;28;20461;-69
2022/12/07 02:15:38;;;;;;;50.30;37.03;;;;;;;1.17;100.00;101628.47;5103161;28;20061;-70
2022/12/07 02:18:21;;;;;;;49.67;36.83;;;;;;;1.09;100.00;101632.34;5098002;28;20067;-70
2022/12/07 02:20:56;;;;;;;46.58;35.63;;;;;;;1.00;100.00;101630.13;5100776;28;20424;-71
2022/12/07 02:23:59;;;;;;;48.83;37.03;;;;;;;0.96;100.00;101631.69;5102941;28;20036;-71
2022/12/07 02:26:49;;;;;;;49.60;37.05;;;;;;;0.88;100.00;101630.34;5078239;28;20081;-70
2022/12/07 02:29:27;;;;;;;50.63;36.28;;;;;;;0.85;100.00;101630.19;5098287;28;20028;-70
2022/12/07 02:32:20;;;;;;;49.17;37.70;;;;;;;0.83;100.00;101627.50;5102997;28;20023;-70
2022/12/07 02:35:04;;;;;;;50.92;37.25;;;;;;;0.76;100.00;101629.63;5099709;28;20126;-70
2022/12/07 02:37:48;;;;;;;50.78;37.00;;;;;;;0.71;100.00;101626.78;5101801;28;20497;-70
2022/12/07 02:40:32;;;;;;;48.75;36.53;;;;;;;0.61;100.00;101625.38;5099604;28;20032;-70
2022/12/07 02:43:25;;;;;;;52.13;38.13;;;;;;;0.60;100.00;101623.56;5102112;28;20023;-70
2022/12/07 02:45:54;;;;;;;49.88;36.30;;;;;;;0.63;100.00;101628.94;5099069;28;20028;-69
2022/12/07 02:48:20;;;;;;;50.38;37.83;;;;;;;0.63;100.00;101628.94;5103299;28;20112;-69
2022/12/07 02:50:50;;;;;;;53.03;38.55;;;;;;;0.76;100.00;101632.25;5102139;28;20043;-70
2022/12/07 02:53:29;;;;;;;54.13;39.42;;;;;;;0.82;100.00;101625.69;5103551;28;20047;-71
2022/12/07 02:55:55;;;;;;;54.97;41.25;;;;;;;0.85;100.00;101628.47;5103662;28;20035;-70
2022/12/07 02:58:53;;;;;;;52.42;39.63;;;;;;;0.86;100.00;101629.38;5102867;28;20427;-70
2022/12/07 03:01:43;;;;;;;49.58;37.13;;;;;;;0.84;100.00;101628.38;5099668;28;20042;-70
2022/12/07 03:04:48;;;;;;;50.47;38.08;;;;;;;0.85;100.00;101627.56;5095464;28;20031;-70
2022/12/07 03:07:50;;;;;;;51.78;38.42;;;;;;;0.87;100.00;101628.53;5102280;28;20035;-70
2022/12/07 03:10:24;;;;;;;55.35;40.45;;;;;;;0.95;100.00;101621.19;5103009;28;20497;-76
2022/12/07 03:13:09;;;;;;;53.95;40.05;;;;;;;0.93;100.00;101625.38;5101105;28;20028;-76
2022/12/07 03:15:57;;;;;;;52.15;38.38;;;;;;;0.89;100.00;101631.22;5099946;28;20036;-77
2022/12/07 03:18:26;;;;;;;55.80;39.05;;;;;;;0.90;100.00;101633.91;5097005;28;20086;-77
2022/12/07 03:20:56;;;;;;;55.45;39.63;;;;;;;0.93;100.00;101634.09;5096930;28;20024;-75
2022/12/07 03:23:25;;;;;;;54.85;39.97;;;;;;;0.92;100.00;101629.72;5096933;28;20239;-77
2022/12/07 03:25:55;;;;;;;56.13;38.67;;;;;;;0.89;100.00;101626.94;5104459;28;20379;-77
2022/12/07 03:28:24;;;;;;;51.35;38.13;;;;;;;0.90;100.00;101622.63;5100817;28;20129;-77
2022/12/07 03:30:59;;;;;;;49.65;36.20;;;;;;;0.77;100.00;101623.63;5104021;28;20030;-76
2022/12/07 03:33:31;;;;;;;54.05;37.47;;;;;;;0.78;100.00;101622.84;5097264;28;20032;-77
2022/12/07 03:36:21;;;;;;;52.22;36.75;;;;;;;0.90;100.00;101623.50;5097081;28;20119;-77
2022/12/07 03:39:14;;;;;;;51.42;37.20;;;;;;;0.95;100.00;101627.28;5101765;28;20077;-76
2022/12/07 03:41:40;;;;;;;48.33;35.45;;;;;;;1.02;100.00;101628.50;5102897;28;20036;-76
2022/12/07 03:44:06;;;;;;;52.03;35.85;;;;;;;1.06;100.00;101620.03;5106964;28;20039;-77
2022/12/07 03:46:59;;;;;;;49.83;34.70;;;;;;;1.09;100.00;101625.41;5105519;28;20210;-77
2022/12/07 03:49:33;;;;;;;48.88;34.70;;;;;;;1.10;100.00;101623.72;5101055;28;20025;-75
2022/12/07 03:52:24;;;;;;;47.70;35.25;;;;;;;1.10;100.00;101621.13;5100289;28;20032;-77
2022/12/07 03:55:00;;;;;;;46.65;32.83;;;;;;;1.14;100.00;101620.50;5104468;28;20028;-77
2022/12/07 03:57:28;;;;;;;51.35;35.67;;;;;;;1.17;100.00;101618.94;5100757;28;20085;-69
2022/12/07 03:59:56;;;;;;;48.67;33.67;;;;;;;1.19;100.00;101626.84;5100677;28;20535;-70
2022/12/07 04:02:22;;;;;;;49.10;36.15;;;;;;;1.23;100.00;101622.72;5100470;28;20020;-71
2022/12/07 04:04:47;;;;;;;49.47;35.35;;;;;;;1.25;100.00;101611.53;5107480;28;20111;-68
2022/12/07 04:07:12;;;;;;;48.85;33.88;;;;;;;1.30;100.00;101610.09;5104632;28;20081;-71
2022/12/07 04:09:38;;;;;;;47.88;33.00;;;;;;;1.39;100.00;101604.47;5107349;28;20031;-70
2022/12/07 04:12:04;;;;;;;47.42;32.30;;;;;;;1.44;100.00;101620.34;5103931;28;20055;-69
2022/12/07 04:14:29;;;;;;;46.90;31.48;;;;;;;1.45;100.00;101614.34;5106009;28;20035;-70
2022/12/07 04:16:57;;;;;;;48.10;32.10;;;;;;;1.46;100.00;101621.34;5105128;28;20043;-70
2022/12/07 04:19:31;;;;;;;44.55;30.17;;;;;;;1.44;100.00;101613.41;5104679;28;20063;-69
2022/12/07 04:21:58;;;;;;;44.22;30.05;;;;;;;1.44;100.00;101622.97;5106147;28;20034;-69
2022/12/07 04:24:24;;;;;;;48.00;31.38;;;;;;;1.46;100.00;101621.34;5104654;28;20032;-69
2022/12/07 04:26:50;;;;;;;45.13;29.65;;;;;;;1.45;100.00;101616.94;5106790;27;20110;-69
2022/12/07 04:29:16;;;;;;;45.35;30.90;;;;;;;1.52;100.00;101611.25;5103948;28;20103;-69
2022/12/07 04:31:43;;;;;;;45.75;30.70;;;;;;;1.53;100.00;101613.00;5107665;28;20394;-69
2022/12/07 04:34:08;;;;;;;45.42;31.30;;;;;;;1.55;100.00;101612.28;5104048;28;20056;-69
2022/12/07 04:36:34;;;;;;;47.33;30.40;;;;;;;1.54;100.00;101607.00;5106140;28;20039;-68
2022/12/07 04:39:00;;;;;;;47.38;30.73;;;;;;;1.56;100.00;101608.88;5105267;27;20074;-69
2022/12/07 04:41:29;;;;;;;45.28;30.40;;;;;;;1.61;100.00;101608.22;5105119;28;20028;-68
2022/12/07 04:43:55;;;;;;;47.20;30.75;;;;;;;1.67;100.00;101599.00;5105156;28;20028;-68
2022/12/07 04:46:22;;;;;;;48.83;31.15;;;;;;;1.67;100.00;101600.72;5105732;28;20023;-69
2022/12/07 04:48:47;;;;;;;45.55;30.92;;;;;;;1.67;100.00;101606.81;5104204;28;20107;-69
2022/12/07 04:51:15;;;;;;;47.92;31.52;;;;;;;1.69;100.00;101604.28;5106994;28;20492;-70
2022/12/07 04:53:40;;;;;;;45.78;31.45;;;;;;;1.68;100.00;101611.22;5098674;28;20528;-70
2022/12/07 04:56:06;;;;;;;46.97;31.77;;;;;;;1.65;100.00;101612.78;5106299;28;20031;-69
2022/12/07 04:58:31;;;;;;;45.95;31.77;;;;;;;1.65;100.00;101603.25;5104290;28;20036;-69
2022/12/07 05:00:57;;;;;;;48.03;32.10;;;;;;;1.63;100.00;101602.28;5104749;28;20024;-70
2022/12/07 05:03:22;;;;;;;47.35;32.42;;;;;;;1.63;100.00;101596.16;5105051;28;20165;-69
2022/12/07 05:05:47;;;;;;;46.78;32.35;;;;;;;1.62;100.00;101595.28;5105304;28;20052;-69
2022/12/07 05:08:13;;;;;;;46.28;32.55;;;;;;;1.60;100.00;101589.06;5105371;28;20024;-69
2022/12/07 05:10:38;;;;;;;46.80;31.92;;;;;;;1.59;100.00;101586.38;5103941;28;20462;-76
2022/12/07 05:13:03;;;;;;;46.72;32.50;;;;;;;1.59;100.00;101592.50;5106659;27;20537;-76
2022/12/07 05:15:28;;;;;;;45.78;32.80;;;;;;;1.60;100.00;101591.69;5102928;28;20138;-76
2022/12/07 05:17:54;;;;;;;46.53;32.28;;;;;;;1.58;100.00;101601.13;5105634;28;20142;-76
2022/12/07 05:20:20;;;;;;;46.33;33.33;;;;;;;1.57;100.00;101591.50;5104131;28;20055;-77
2022/12/07 05:22:45;;;;;;;47.38;32.90;;;;;;;1.53;100.00;101590.47;5104391;28;20032;-77
2022/12/07 05:25:10;;;;;;;47.90;33.40;;;;;;;1.54;100.00;101591.34;5104213;28;20036;-77
2022/12/07 05:27:36;;;;;;;47.63;33.25;;;;;;;1.52;100.00;101595.59;5102603;28;20027;-74
2022/12/07 05:30:01;;;;;;;46.53;31.83;;;;;;;1.48;100.00;101586.72;5106080;28;20047;-77
2022/12/07 05:32:26;;;;;;;45.17;32.45;;;;;;;1.44;100.00;101597.78;5103132;28;20016;-77
2022/12/07 05:34:54;;;;;;;45.90;32.83;;;;;;;1.41;100.00;101597.63;5104782;28;20048;-77
2022/12/07 05:37:20;;;;;;;45.88;32.53;;;;;;;1.38;100.00;101595.78;5103928;28;20023;-77
2022/12/07 05:39:45;;;;;;;45.13;31.83;;;;;;;1.35;100.00;101592.97;5103999;28;20039;-77
2022/12/07 05:42:13;;;;;;;46.15;31.88;;;;;;;1.26;100.00;101591.59;5105301;28;20023;-77
2022/12/07 05:44:40;;;;;;;44.83;32.42;;;;;;;1.19;100.00;101587.75;5102911;28;20032;-77
2022/12/07 05:47:06;;;;;;;43.85;30.50;;;;;;;1.15;100.00;101583.19;5099698;28;20059;-79
2022/12/07 05:49:32;;;;;;;45.35;31.75;;;;;;;1.03;100.00;101586.94;5073127;28;20056;-77
2022/12/07 05:51:58;;;;;;;43.33;30.08;;;;;;;0.99;100.00;101590.19;5098667;28;20379;-76
2022/12/07 05:54:23;;;;;;;42.85;29.83;;;;;;;0.92;100.00;101580.25;5100181;28;20019;-66
2022/12/07 05:56:49;;;;;;;45.63;31.27;;;;;;;0.86;100.00;101577.31;5097627;28;20107;-67
2022/12/07 05:59:23;;;;;;;46.70;30.58;;;;;;;0.77;100.00;101582.91;5095857;28;20020;-67
2022/12/07 06:02:13;;;;;;;45.08;30.88;;;;;;;0.74;100.00;101574.00;5095536;28;20477;-67
2022/12/07 06:04:44;;;;;;;44.55;31.00;;;;;;;0.71;100.00;101589.44;5090520;28;20063;-66
2022/12/07 06:07:11;;;;;;;46.75;30.67;;;;;;;0.66;100.00;101587.47;5093418;28;20034;-68
2022/12/07 06:09:37;;;;;;;45.10;29.80;;;;;;;0.65;100.00;101582.19;5088255;28;20451;-69
2022/12/07 06:14:47;;;;;;;46.30;29.60;;;;;;;0.53;100.00;101579.78;5093785;28;20418;-68
2022/12/07 06:17:13;;;;;;;42.92;28.63;;;;;;;0.60;100.00;101591.47;5091560;28;20024;-74
2022/12/07 06:19:39;;;;;;;43.65;29.70;;;;;;;0.60;100.00;101581.94;5093334;28;20459;-70
2022/12/07 06:22:05;;;;;;;43.28;28.58;;;;;;;0.65;100.00;101596.09;5092105;28;20470;-68
2022/12/07 06:24:32;;;;;;;47.85;29.30;;;;;;;0.65;100.00;101585.69;5092031;28;20031;-69
2022/12/07 06:26:58;;;;;;;44.70;29.92;;;;;;;0.64;100.00;101586.50;5095918;28;20024;-67
2022/12/07 06:29:23;;;;;;;49.42;30.92;;;;;;;0.71;100.00;101589.44;5093200;28;20020;-66
2022/12/07 06:31:49;;;;;;;45.40;30.83;;;;;;;0.73;100.00;101587.81;5094862;28;20024;-76
2022/12/07 06:34:17;;;;;;;48.35;29.45;;;;;;;0.74;100.00;101589.63;5091295;28;20131;-75
2022/12/07 06:36:43;;;;;;;48.35;32.17;;;;;;;0.79;100.00;101590.78;5096416;28;20024;-79
2022/12/07 06:39:08;;;;;;;50.60;32.53;;;;;;;0.84;100.00;101598.00;5096008;28;20038;-74
2022/12/07 06:41:36;;;;;;;48.88;32.75;;;;;;;0.91;100.00;101598.38;5092815;28;20016;-77
2022/12/07 06:44:01;;;;;;;46.85;32.53;;;;;;;0.97;100.00;101598.72;5091109;28;20036;-75
2022/12/07 06:46:26;;;;;;;46.85;32.30;;;;;;;1.04;100.00;101593.91;5095150;28;20020;-77
2022/12/07 06:48:52;;;;;;;45.80;31.80;;;;;;;1.04;100.00;101596.53;5097704;28;20032;-78
2022/12/07 06:51:17;;;;;;;47.47;32.15;;;;;;;1.09;100.00;101590.69;5092829;28;20015;-82
2022/12/07 06:53:42;;;;;;;45.50;31.35;;;;;;;1.11;100.00;101589.06;5091514;28;20058;-79
2022/12/07 06:56:08;;;;;;;45.55;31.90;;;;;;;1.11;100.00;101594.28;5094970;28;20036;-80
2022/12/07 06:58:33;;;;;;;45.72;31.00;;;;;;;1.10;100.00;101595.97;5095064;28;20020;-75
2022/12/07 07:00:59;;;;;;;47.40;31.90;;;;;;;1.09;100.00;101593.28;5091510;28;20467;-79
2022/12/07 07:03:24;;;;;;;47.75;31.48;;;;;;;1.07;100.00;101587.09;5098417;28;20040;-76
2022/12/07 07:05:50;;;;;;;47.05;31.35;;;;;;;1.06;100.00;101585.31;5101913;28;20023;-75
2022/12/07 07:08:15;;;;;;;44.13;30.65;;;;;;;0.99;100.00;101591.88;5093964;28;20547;-76
2022/12/07 07:10:41;;;;;;;43.50;29.77;;;;;;;0.93;100.00;101596.75;5092797;28;20032;-74
2022/12/07 07:13:07;;;;;;;44.67;30.63;;;;;;;0.86;100.00;101600.75;5097272;28;20386;-74
2022/12/07 07:15:33;;;;;;;40.72;28.13;;;;;;;0.86;100.00;101598.13;5097990;28;20028;-73
2022/12/07 07:17:59;;;;;;;44.13;30.75;;;;;;;0.87;100.00;101602.50;5102696;28;20028;-67
2022/12/07 07:20:24;;;;;;;43.35;30.25;;;;;;;0.89;100.00;101605.19;5098149;28;20028;-74
2022/12/07 07:22:50;;;;;;;41.00;28.95;;;;;;;0.88;100.00;101604.31;5094615;28;20024;-72
2022/12/07 07:25:16;;;;;;;43.13;30.35;;;;;;;0.89;100.00;101606.13;5099084;28;20028;-75
2022/12/07 07:27:42;;;;;;;43.05;30.17;;;;;;;0.91;100.00;101601.88;5097869;28;20066;-74
2022/12/07 07:30:08;;;;;;;43.60;31.38;;;;;;;0.96;100.00;101604.72;5096755;28;20035;-67
2022/12/07 07:32:34;;;;;;;45.90;30.60;;;;;;;0.99;100.00;101607.50;5102148;28;20419;-74
2022/12/07 07:35:00;;;;;;;46.50;30.90;;;;;;;0.99;100.00;101602.28;5097922;28;20109;-78
2022/12/07 07:37:25;;;;;;;44.45;31.17;;;;;;;0.99;100.00;101605.81;5096754;28;20399;-75
2022/12/07 07:39:51;;;;;;;45.80;32.38;;;;;;;0.99;100.00;101605.81;5099500;28;20119;-73
2022/12/07 07:42:16;;;;;;;43.70;31.40;;;;;;;0.96;100.00;101600.44;5094851;28;20036;-81
2022/12/07 07:44:41;;;;;;;45.45;33.33;;;;;;;0.95;100.00;101603.84;5094610;28;20046;-73
2022/12/07 07:47:07;;;;;;;44.30;32.85;;;;;;;0.96;100.00;101608.25;5101638;28;20117;-75
2022/12/07 07:49:32;;;;;;;46.10;32.60;;;;;;;0.94;100.00;101603.75;5100548;28;20028;-74
2022/12/07 07:51:58;;;;;;;44.65;32.45;;;;;;;0.96;100.00;101613.47;5100686;28;20024;-79
2022/12/07 07:54:23;;;;;;;44.50;31.95;;;;;;;0.97;100.00;101607.41;5100119;28;20123;-76
2022/12/07 07:56:48;;;;;;;45.38;34.10;;;;;;;0.99;100.00;101603.19;5094061;28;20035;-74
2022/12/07 07:59:14;;;;;;;47.50;33.50;;;;;;;1.01;100.00;101606.78;5095145;28;20020;-74
2022/12/07 08:01:40;;;;;;;49.28;34.83;;;;;;;0.99;100.00;101607.50;5099863;28;20036;-75
2022/12/07 08:04:05;;;;;;;45.30;34.97;;;;;;;0.95;100.00;101606.44;5099184;28;20030;-78
2022/12/07 08:06:30;;;;;;;45.05;34.47;;;;;;;0.87;100.00;101610.31;5096796;28;20027;-78
2022/12/07 08:08:57;;;;;;;43.17;32.40;;;;;;;0.81;100.00;101621.28;5100713;28;21135;-77
2022/12/07 08:11:23;;;;;;;44.05;34.00;;;;;;;0.76;100.00;101614.00;5091887;28;20054;-74
2022/12/07 08:13:48;;;;;;;43.00;32.13;;;;;;;0.68;100.00;101617.13;5094000;28;20036;-75
2022/12/07 08:16:14;;;;;;;40.60;31.23;;;;;;;0.62;100.00;101618.47;5095748;28;20028;-73
2022/12/07 08:18:41;;;;;;;40.72;31.85;;;;;;;0.60;100.00;101620.09;5100237;28;20027;-76
2022/12/07 08:21:11;;;;;;;42.80;32.75;;;;;;;0.56;100.00;101621.59;5097143;27;20115;-77
2022/12/07 08:23:36;;;;;;;44.20;32.70;;;;;;;0.58;100.00;101619.97;5104144;28;20024;-77
2022/12/07 08:26:08;;;;;;;41.35;32.20;;;;;;;0.62;100.00;101631.47;5101042;28;20028;-77
2022/12/07 08:28:33;;;;;;;43.72;33.70;;;;;;;0.72;100.00;101627.69;5095519;28;20084;-76
2022/12/07 08:31:00;;;;;;;44.47;34.15;;;;;;;0.77;100.00;101628.84;5097644;28;20418;-78
2022/12/07 08:33:26;;;;;;;45.25;34.63;;;;;;;0.81;100.00;101626.50;5100305;28;20031;-76
2022/12/07 08:35:51;;;;;;;45.22;33.88;;;;;;;0.95;100.00;101637.69;5104105;28;20402;-77
2022/12/07 08:38:16;;;;;;;46.58;34.60;;;;;;;1.07;100.00;101639.19;5100866;28;20111;-73
2022/12/07 08:40:42;;;;;;;46.17;35.60;;;;;;;1.18;100.00;101640.66;5096268;28;20035;-73
2022/12/07 08:43:07;;;;;;;44.20;33.10;;;;;;;1.36;100.00;101641.69;5094812;28;20032;-72
2022/12/07 08:45:35;;;;;;;45.80;34.35;;;;;;;1.51;100.00;101646.81;5100807;28;20028;-73
2022/12/07 08:48:10;;;;;;;43.45;33.88;;;;;;;1.60;100.00;101642.91;5099744;28;20356;-70
2022/12/07 08:50:37;;;;;;;43.92;32.38;;;;;;;1.64;100.00;101640.56;5099431;28;20035;-70
2022/12/07 08:53:04;;;;;;;40.30;30.65;;;;;;;1.76;100.00;101636.81;5101500;28;20378;-70
2022/12/07 08:55:30;;;;;;;41.03;29.20;;;;;;;1.72;100.00;101633.16;5101040;28;20111;-72
2022/12/07 08:57:58;;;;;;;39.75;27.55;;;;;;;1.67;100.00;101625.06;5097127;28;20024;-69
2022/12/07 09:00:24;;;;;;;36.95;27.55;;;;;;;1.78;100.00;101635.16;5098544;28;20020;-72
2022/12/07 09:02:49;;;;;;;38.95;26.10;;;;;;;1.81;100.00;101624.94;5099361;28;20036;-77
2022/12/07 09:05:15;;;;;;;36.35;25.40;;;;;;;1.80;100.00;101628.34;5097810;28;20043;-72
2022/12/07 09:07:42;;;;;;;36.13;24.55;;;;;;;1.87;100.00;101627.84;5098941;28;20024;-76
2022/12/07 09:10:08;;;;;;;34.28;23.27;;;;;;;1.88;100.00;101614.00;5101617;28;20023;-81
2022/12/07 09:12:33;;;;;;;34.85;23.50;;;;;;;1.94;100.00;101619.53;5104141;28;20027;-71
2022/12/07 09:15:00;;;;;;;33.70;21.75;;;;;;;1.97;100.00;101619.69;5103718;28;20479;-70
2022/12/07 09:17:26;;;;;;;35.33;22.90;;;;;;;2.03;100.00;101622.59;5106240;28;20042;-71
2022/12/07 09:19:51;;;;;;;32.75;22.10;;;;;;;2.07;100.00;101623.66;5103015;28;20115;-70
2022/12/07 09:22:16;;;;;;;33.03;21.27;;;;;;;2.13;100.00;101615.25;5106032;28;20024;-70
2022/12/07 09:24:43;;;;;;;31.63;20.98;;;;;;;2.15;100.00;101616.22;5103894;28;20534;-70
2022/12/07 09:27:08;;;;;;;31.85;20.42;;;;;;;2.09;100.00;101620.28;5104704;28;20028;-70
2022/12/07 09:29:33;;;;;;;32.17;19.60;;;;;;;2.04;100.00;101624.41;5104823;28;20382;-70
2022/12/07 09:31:59;;;;;;;29.30;18.83;;;;;;;2.00;100.00;101622.44;5103216;28;20471;-69
2022/12/07 09:34:26;;;;;;;29.30;19.17;;;;;;;1.91;100.00;101622.88;5104847;28;20071;-71
2022/12/07 09:36:51;;;;;;;29.60;18.23;;;;;;;1.84;100.00;101627.69;5098480;28;20035;-71
2022/12/07 09:39:16;;;;;;;29.35;18.13;;;;;;;1.82;100.00;101626.69;5103966;28;20032;-70
2022/12/07 09:41:44;;;;;;;30.98;19.10;;;;;;;1.85;100.00;101630.38;5102692;28;20026;-70
2022/12/07 09:44:14;;;;;;;30.45;20.00;;;;;;;2.00;100.00;101625.06;5104296;28;20036;-70
2022/12/07 09:46:42;;;;;;;31.75;22.30;;;;;;;2.35;100.00;101620.72;5103593;28;20481;-70
2022/12/07 09:49:29;;;;;;;33.30;23.30;;;;;;;2.69;100.00;101617.16;5104049;28;20031;-68
2022/12/07 09:52:18;;;;;;;33.40;22.20;;;;;;;3.01;100.00;101622.16;5093436;28;20031;-65
2022/12/07 09:54:48;;;;;;;28.50;18.83;;;;;;;3.56;100.00;101616.00;5092316;28;20036;-77
2022/12/07 09:57:13;;;;;;;26.00;16.88;;;;;;;4.12;100.00;101629.78;5095311;28;20073;-76
2022/12/07 09:59:43;;;;;;;24.58;14.02;;;;;;;4.47;100.00;101625.13;5097588;28;20020;-77
2022/12/07 10:02:33;;;;;;;23.90;12.52;;;;;;;4.35;100.00;101622.91;5098920;28;20092;-79
2022/12/07 10:04:59;;;;;;;24.17;11.73;;;;;;;4.10;100.00;101623.59;5090808;28;20463;-80
2022/12/07 10:07:24;;;;;;;24.58;11.07;;;;;;;4.00;100.00;101619.69;5098362;28;20103;-76
2022/12/07 10:09:50;;;;;;;22.83;11.32;;;;;;;4.09;100.00;101608.72;5097497;28;20126;-77
2022/12/07 10:12:15;;;;;;;22.80;10.00;;;;;;;4.23;100.00;101606.69;5096803;28;20035;-70
2022/12/07 10:14:55;;;;;;;21.23;9.20;;;;;;;4.33;100.00;101614.09;5096815;28;20064;-70
2022/12/07 10:17:35;;;;;;;21.45;8.93;;;;;;;4.62;100.00;101602.22;5099452;28;20107;-71
2022/12/07 10:20:20;;;;;;;19.92;7.18;;;;;;;4.86;100.00;101609.28;5093640;28;20107;-77
2022/12/07 10:23:05;;;;;;;20.45;7.80;;;;;;;4.94;100.00;101605.25;5096930;28;20028;-74
2022/12/07 10:25:34;;;;;;;20.33;6.93;;;;;;;5.02;100.00;101605.53;5097925;28;20115;-77
2022/12/07 10:28:13;;;;;;;20.60;7.07;;;;;;;5.26;100.00;101607.31;5093972;28;20038;-77
2022/12/07 10:30:58;;;;;;;22.38;6.80;;;;;;;5.15;100.00;101594.69;5093208;28;20459;-76
2022/12/07 10:33:38;;;;;;;20.73;7.38;;;;;;;4.91;100.00;101598.97;5099571;28;20044;-77
2022/12/07 10:36:21;;;;;;;19.63;6.45;;;;;;;5.24;100.00;101587.19;5096985;28;20407;-77
2022/12/07 10:39:09;;;;;;;20.73;6.47;;;;;;;6.28;100.00;101581.28;5099985;28;20027;-77
2022/12/07 10:41:35;;;;;;;18.75;6.13;;;;;;;7.47;100.00;101586.69;5104424;28;20115;-79
2022/12/07 10:44:00;;;;;;;18.30;5.70;;;;;;;8.32;100.00;101581.97;5102845;28;20118;-79
2022/12/07 10:46:25;;;;;;;20.33;5.50;;;;;;;8.77;100.00;101580.47;5102923;28;20055;-73
2022/12/07 10:49:16;;;;;;;17.85;4.90;;;;;;;9.49;100.00;101580.28;5103921;28;20035;-79
2022/12/07 10:51:53;;;;;;;18.10;4.78;;;;;;;10.04;100.00;101575.19;5096953;28;20028;-79
2022/12/07 10:54:39;;;;;;;17.70;4.63;;;;;;;9.36;100.00;101566.84;5099548;28;20020;-79
2022/12/07 10:57:38;;;;;;;18.85;4.97;;;;;;;8.73;100.00;101568.06;5101836;28;20075;-79
2022/12/07 11:00:15;;;;;;;18.23;5.10;;;;;;;8.20;100.00;101565.88;5103068;28;20046;-78
2022/12/07 11:03:25;;;;;;;19.17;4.88;;;;;;;8.25;100.00;101560.72;5093978;28;20493;-77
2022/12/07 11:05:58;;;;;;;17.20;4.88;;;;;;;8.44;100.00;101564.72;5093178;28;20028;-82
2022/12/07 11:08:50;;;;;;;17.80;4.75;;;;;;;8.32;100.00;101566.19;5093710;28;20028;-83
2022/12/07 11:11:38;;;;;;;17.38;4.82;;;;;;;7.78;100.00;101548.09;5095487;28;20366;-82
2022/12/07 11:14:03;;;;;;;18.35;5.00;;;;;;;7.18;100.00;101552.56;5090009;28;20030;-74
2022/12/07 11:16:38;;;;;;;17.50;4.90;;;;;;;6.76;100.00;101542.53;5093403;28;20025;-82
2022/12/07 11:19:35;;;;;;;18.23;5.03;;;;;;;6.61;100.00;101537.66;5097240;28;20475;-78
2022/12/07 11:22:20;;;;;;;18.15;5.38;;;;;;;6.54;100.00;101541.84;5097741;28;20374;-77
2022/12/07 11:25:20;;;;;;;18.23;4.78;;;;;;;6.33;100.00;101543.78;5091073;28;20075;-78
2022/12/07 11:28:01;;;;;;;19.35;5.32;;;;;;;6.09;100.00;101536.88;5094907;28;20457;-78